Time;durP1;ratioP1;P1;durP2;ratioP2;P2;SDS_P1;SDS_P2;PMS_P1;PMS_P2;Temp;Humidity;BMP_temperature;BMP_pressure;BME280_temperature;BME280_humidity;BME280_pressure;Samples;Min_cycle;Max_cycle;Signal;HPM_P1;HPM_P2
2021/12/14 00:01:46;;;;;;;14.05;8.73;;;10.10;75.20;;;;;;5097994;28;20024;-55
2021/12/14 00:04:27;;;;;;;12.70;7.85;;;10.10;75.20;;;;;;5097556;28;20487;-56
2021/12/14 00:06:55;;;;;;;15.00;8.20;;;10.00;75.30;;;;;;5097579;28;20028;-52
2021/12/14 00:09:28;;;;;;;15.82;9.35;;;10.10;75.40;;;;;;5097818;28;20470;-52
2021/12/14 00:17:16;;;;;;;12.52;7.60;;;10.00;75.30;;;;;;5097889;28;20064;-53
2021/12/14 00:19:42;;;;;;;13.18;8.15;;;10.00;75.40;;;;;;5097335;28;20058;-55
2021/12/14 00:22:26;;;;;;;15.13;8.43;;;10.00;75.50;;;;;;5097648;28;20017;-53
2021/12/14 00:24:51;;;;;;;15.32;8.70;;;10.10;75.40;;;;;;5097355;28;20027;-51
2021/12/14 00:27:19;;;;;;;13.88;8.43;;;10.10;75.40;;;;;;5097467;28;20016;-52
2021/12/14 00:29:48;;;;;;;13.93;8.65;;;10.00;75.40;;;;;;5097464;28;20055;-55
2021/12/14 00:32:19;;;;;;;14.32;8.57;;;10.10;75.30;;;;;;5097555;28;20069;-53
2021/12/14 00:34:49;;;;;;;14.82;8.45;;;10.00;75.40;;;;;;5097468;28;20518;-52
2021/12/14 00:37:25;;;;;;;17.30;8.98;;;10.00;75.40;;;;;;5097591;28;20016;-54
2021/12/14 00:39:55;;;;;;;14.13;8.93;;;10.00;75.20;;;;;;5097696;28;20027;-52
2021/12/14 00:42:22;;;;;;;16.35;9.32;;;10.10;75.10;;;;;;5097498;28;20050;-52
2021/12/14 00:44:48;;;;;;;18.15;10.20;;;10.00;75.10;;;;;;5097680;28;20020;-55
2021/12/14 00:47:15;;;;;;;20.98;10.30;;;10.00;75.30;;;;;;5097403;28;20028;-52
2021/12/14 00:49:41;;;;;;;19.10;10.23;;;9.90;75.30;;;;;;5097359;28;20022;-55
2021/12/14 00:52:09;;;;;;;22.08;10.93;;;9.90;75.20;;;;;;5097111;28;20107;-50
2021/12/14 00:54:35;;;;;;;22.70;11.50;;;9.90;75.40;;;;;;5097529;28;20032;-59
2021/12/14 00:57:02;;;;;;;20.95;11.07;;;9.90;75.30;;;;;;5097307;28;20028;-57
2021/12/14 00:59:28;;;;;;;20.35;11.85;;;9.90;75.40;;;;;;5097619;28;20020;-53
2021/12/14 01:01:57;;;;;;;17.25;9.90;;;9.90;75.60;;;;;;5097605;28;20071;-51
2021/12/14 01:04:36;;;;;;;17.65;10.48;;;9.90;75.50;;;;;;5097204;28;20012;-55
2021/12/14 01:07:05;;;;;;;15.00;9.68;;;9.90;75.50;;;;;;5097224;28;20045;-58
2021/12/14 01:09:36;;;;;;;16.02;9.50;;;9.90;75.50;;;;;;5097330;28;20032;-57
2021/12/14 01:12:11;;;;;;;16.88;9.65;;;9.90;75.50;;;;;;5097218;28;20031;-55
2021/12/14 01:14:59;;;;;;;13.82;8.68;;;9.90;75.60;;;;;;5096889;28;20024;-58
2021/12/14 01:17:28;;;;;;;14.20;7.97;;;9.90;75.70;;;;;;5097117;28;20050;-54
2021/12/14 01:20:00;;;;;;;14.00;7.93;;;9.80;75.70;;;;;;5097299;28;20016;-56
2021/12/14 01:25:29;;;;;;;13.68;8.20;;;9.90;75.80;;;;;;5097283;28;20031;-56
2021/12/14 01:28:01;;;;;;;14.10;7.65;;;9.90;75.60;;;;;;5097264;28;20028;-56
2021/12/14 01:30:48;;;;;;;12.82;7.55;;;9.90;75.70;;;;;;5097159;28;20039;-52
2021/12/14 01:33:16;;;;;;;12.45;7.40;;;9.90;75.70;;;;;;5096999;28;20059;-53
2021/12/14 01:35:46;;;;;;;13.02;7.50;;;9.90;75.70;;;;;;5096852;28;20028;-54
2021/12/14 01:38:21;;;;;;;14.95;7.63;;;10.00;75.70;;;;;;5097035;28;20360;-52
2021/12/14 01:40:54;;;;;;;12.02;7.47;;;10.00;75.80;;;;;;5097099;28;20032;-52
2021/12/14 01:43:44;;;;;;;12.13;7.20;;;10.00;76.10;;;;;;5100058;28;20109;-50
2021/12/14 01:46:22;;;;;;;13.70;7.68;;;10.00;76.40;;;;;;5099717;28;20043;-52
2021/12/14 01:48:48;;;;;;;11.80;6.82;;;10.00;75.70;;;;;;5100464;28;20396;-53
2021/12/14 01:51:15;;;;;;;12.93;7.30;;;10.10;76.10;;;;;;5100568;28;20081;-51
2021/12/14 01:53:44;;;;;;;12.75;6.60;;;10.00;76.20;;;;;;5100333;28;20044;-52
2021/12/14 01:56:13;;;;;;;11.75;6.35;;;10.00;76.20;;;;;;5100253;28;20020;-56
2021/12/14 01:58:45;;;;;;;11.15;6.55;;;10.10;76.10;;;;;;5100355;28;20028;-55
2021/12/14 02:01:15;;;;;;;12.07;5.45;;;10.10;76.00;;;;;;5100392;28;20434;-54
2021/12/14 02:03:50;;;;;;;9.85;5.00;;;10.10;75.90;;;;;;5100247;28;20069;-49
2021/12/14 02:06:21;;;;;;;9.65;5.68;;;10.10;75.90;;;;;;5100522;28;20026;-50
2021/12/14 02:08:55;;;;;;;13.85;9.75;;;10.10;76.20;;;;;;5100014;28;20046;-52
2021/12/14 02:11:21;;;;;;;9.18;5.60;;;10.20;76.10;;;;;;5100191;28;20024;-49
2021/12/14 02:13:47;;;;;;;11.68;5.47;;;10.20;75.90;;;;;;5099957;28;20039;-52
2021/12/14 02:16:16;;;;;;;10.23;5.15;;;10.20;75.90;;;;;;5100216;28;20027;-56
2021/12/14 02:18:48;;;;;;;10.02;5.22;;;10.20;76.00;;;;;;5099596;28;20050;-53
2021/12/14 02:21:14;;;;;;;11.30;5.63;;;10.20;76.10;;;;;;5099979;28;20038;-53
2021/12/14 02:23:45;;;;;;;10.75;5.60;;;10.30;76.10;;;;;;5099967;28;20016;-58
2021/12/14 02:26:15;;;;;;;13.15;6.00;;;10.30;76.00;;;;;;5099681;28;20424;-51
2021/12/14 02:28:41;;;;;;;11.00;6.72;;;10.30;76.00;;;;;;5099646;28;20106;-55
2021/12/14 02:31:10;;;;;;;11.27;6.45;;;10.40;75.90;;;;;;5099629;28;20074;-56
2021/12/14 02:33:38;;;;;;;11.45;6.60;;;10.40;75.80;;;;;;5099554;28;20333;-55
2021/12/14 02:36:11;;;;;;;11.18;6.40;;;10.30;76.00;;;;;;5099738;28;20031;-53
2021/12/14 02:38:47;;;;;;;13.88;6.60;;;10.40;76.00;;;;;;5099421;28;20035;-55
2021/12/14 02:41:14;;;;;;;12.60;6.72;;;10.40;75.90;;;;;;5099145;28;20094;-53
2021/12/14 02:43:41;;;;;;;11.77;5.82;;;10.40;75.90;;;;;;5099288;28;20097;-54
2021/12/14 02:46:10;;;;;;;10.93;6.45;;;10.40;75.90;;;;;;5099163;28;20481;-50
2021/12/14 02:48:37;;;;;;;10.90;6.75;;;10.40;76.00;;;;;;5099032;28;20036;-49
2021/12/14 02:51:16;;;;;;;14.10;8.10;;;10.40;75.90;;;;;;5099384;28;20036;-49
2021/12/14 02:53:43;;;;;;;13.07;8.07;;;10.40;75.70;;;;;;5099324;28;20024;-56
2021/12/14 02:56:13;;;;;;;14.57;8.32;;;10.40;75.60;;;;;;5099120;28;20046;-51
2021/12/14 02:58:39;;;;;;;15.38;7.68;;;10.40;75.70;;;;;;5099431;28;20020;-51
2021/12/14 03:01:07;;;;;;;18.67;9.63;;;10.40;75.80;;;;;;5099001;28;20075;-56
2021/12/14 03:03:33;;;;;;;21.85;11.70;;;10.40;75.80;;;;;;5099013;28;20043;-57
2021/12/14 03:06:00;;;;;;;17.70;10.50;;;10.40;75.60;;;;;;5098992;28;20024;-54
2021/12/14 03:08:28;;;;;;;18.38;9.50;;;10.40;75.50;;;;;;5098908;28;20027;-56
2021/12/14 03:11:09;;;;;;;20.17;11.30;;;10.30;75.60;;;;;;5098877;28;20032;-50
2021/12/14 03:13:51;;;;;;;22.13;12.13;;;10.30;75.60;;;;;;5098826;28;20103;-51
2021/12/14 03:16:22;;;;;;;21.65;11.85;;;10.30;75.50;;;;;;5099080;28;20115;-53
2021/12/14 03:18:49;;;;;;;23.35;12.45;;;10.30;75.40;;;;;;5098540;28;20044;-53
2021/12/14 03:21:24;;;;;;;24.52;12.77;;;10.30;75.50;;;;;;5098531;28;20024;-54
2021/12/14 03:24:00;;;;;;;20.13;12.23;;;10.20;75.40;;;;;;5098842;28;20016;-50
2021/12/14 03:26:29;;;;;;;23.65;12.27;;;10.20;75.80;;;;;;5098752;28;20020;-55
2021/12/14 03:29:00;;;;;;;28.23;13.73;;;10.20;75.80;;;;;;5098500;28;20038;-57
2021/12/14 03:31:54;;;;;;;26.10;12.63;;;10.20;75.70;;;;;;5098635;28;20081;-54
2021/12/14 03:34:30;;;;;;;22.13;12.27;;;10.20;75.60;;;;;;5097036;28;20040;-49
2021/12/14 03:37:03;;;;;;;24.60;13.68;;;10.20;75.60;;;;;;5098540;28;20081;-58
2021/12/14 03:39:33;;;;;;;24.15;12.10;;;10.20;75.70;;;;;;5098692;28;20048;-50
2021/12/14 03:42:14;;;;;;;23.30;12.10;;;10.20;75.70;;;;;;5097988;28;20024;-53
2021/12/14 03:44:47;;;;;;;28.48;13.20;;;10.20;75.50;;;;;;5098429;28;20024;-51
2021/12/14 03:47:26;;;;;;;21.52;11.32;;;10.20;75.90;;;;;;5098098;28;20019;-54
2021/12/14 03:50:00;;;;;;;24.98;12.50;;;10.20;75.60;;;;;;5098252;28;20494;-55
2021/12/14 03:52:32;;;;;;;22.85;13.60;;;10.10;75.70;;;;;;5098121;28;20504;-50
2021/12/14 03:55:01;;;;;;;23.33;12.00;;;10.20;75.70;;;;;;5098217;28;20028;-58
2021/12/14 03:57:26;;;;;;;27.73;12.13;;;10.20;75.50;;;;;;5098088;28;20494;-59
2021/12/14 03:59:53;;;;;;;26.08;12.55;;;10.20;75.50;;;;;;5098429;28;20020;-51
2021/12/14 04:02:19;;;;;;;23.75;12.80;;;10.20;75.70;;;;;;5098037;28;20026;-51
2021/12/14 04:05:03;;;;;;;27.08;13.23;;;10.20;75.70;;;;;;5097563;28;20050;-51
2021/12/14 04:07:31;;;;;;;24.85;13.18;;;10.20;75.70;;;;;;5097699;28;20059;-51
2021/12/14 04:09:57;;;;;;;28.30;15.10;;;10.20;75.60;;;;;;5097809;28;20389;-50
2021/12/14 04:12:22;;;;;;;23.75;11.43;;;10.20;75.50;;;;;;5097778;28;20024;-50
2021/12/14 04:14:57;;;;;;;22.45;11.07;;;10.20;75.50;;;;;;5097667;28;20028;-53
2021/12/14 04:17:26;;;;;;;20.98;11.23;;;10.20;75.60;;;;;;5097621;28;20088;-53
2021/12/14 04:19:52;;;;;;;21.23;11.57;;;10.10;75.70;;;;;;5097874;28;20050;-53
2021/12/14 04:22:23;;;;;;;21.27;12.00;;;10.10;75.60;;;;;;5098124;28;20029;-55
2021/12/14 04:24:54;;;;;;;20.13;10.85;;;10.10;75.60;;;;;;5098400;28;20097;-54
2021/12/14 04:27:24;;;;;;;17.40;10.55;;;10.10;75.60;;;;;;5097885;28;20024;-51
2021/12/14 04:29:51;;;;;;;21.38;11.15;;;10.10;75.60;;;;;;5097961;28;20028;-56
2021/12/14 04:32:18;;;;;;;19.40;11.95;;;10.20;75.60;;;;;;5098043;28;20032;-51
2021/12/14 04:34:45;;;;;;;21.73;12.10;;;10.10;75.60;;;;;;5097753;28;20028;-49
2021/12/14 04:37:14;;;;;;;21.00;11.70;;;10.10;75.60;;;;;;5097812;28;20024;-55
2021/12/14 04:39:45;;;;;;;21.58;12.25;;;10.10;75.50;;;;;;5097899;28;20032;-49
2021/12/14 04:53:24;;;;;;;17.35;10.07;;;10.10;75.50;;;;;;5097929;28;19911;-54
2021/12/14 04:55:58;;;;;;;18.50;10.10;;;10.10;75.60;;;;;;5097604;28;20475;-51
2021/12/14 04:58:31;;;;;;;17.20;10.52;;;10.10;75.60;;;;;;5097609;28;20552;-50
2021/12/14 05:00:59;;;;;;;19.38;10.23;;;10.10;75.60;;;;;;5097602;28;20089;-54
2021/12/14 05:03:38;;;;;;;21.55;11.10;;;10.10;75.60;;;;;;5097751;28;20183;-53
2021/12/14 05:06:20;;;;;;;18.35;10.15;;;10.10;75.50;;;;;;5097773;28;20115;-53
2021/12/14 05:11:24;;;;;;;20.45;11.13;;;10.10;75.50;;;;;;5097765;28;20032;-50
2021/12/14 05:13:59;;;;;;;22.08;11.15;;;10.10;75.60;;;;;;5097625;28;20036;-54
2021/12/14 05:16:27;;;;;;;20.08;12.15;;;10.10;76.10;;;;;;5098306;28;20434;-51
2021/12/14 05:18:57;;;;;;;19.98;11.88;;;10.10;75.60;;;;;;5100996;28;20047;-51
2021/12/14 05:21:35;;;;;;;19.42;11.85;;;10.10;75.60;;;;;;5101485;28;20149;-50
2021/12/14 05:24:04;;;;;;;19.55;12.35;;;10.10;75.60;;;;;;5101368;28;20040;-53
2021/12/14 05:26:30;;;;;;;20.17;11.00;;;10.10;75.50;;;;;;5101035;28;20031;-50
2021/12/14 05:28:56;;;;;;;19.05;11.82;;;10.10;75.60;;;;;;5101246;28;20024;-51
2021/12/14 05:31:22;;;;;;;18.15;10.40;;;10.10;75.60;;;;;;5101058;28;20507;-50
2021/12/14 05:33:48;;;;;;;18.65;11.00;;;10.10;75.50;;;;;;5101169;28;20077;-51
2021/12/14 05:36:17;;;;;;;17.67;10.75;;;10.10;75.50;;;;;;5100999;28;20041;-52
2021/12/14 05:44:16;;;;;;;19.77;11.65;;;10.20;75.40;;;;;;5101183;28;20483;-50
2021/12/14 05:46:50;;;;;;;19.95;11.38;;;10.10;75.30;;;;;;5100902;28;20503;-52
2021/12/14 05:49:21;;;;;;;19.25;11.40;;;10.10;75.40;;;;;;5100503;28;20111;-56
2021/12/14 05:51:49;;;;;;;17.65;10.38;;;10.10;75.40;;;;;;5100670;28;20031;-54
2021/12/14 05:54:27;;;;;;;18.73;10.75;;;10.00;75.40;;;;;;5100808;28;20422;-54
2021/12/14 05:56:55;;;;;;;19.27;11.00;;;10.10;75.50;;;;;;5100749;28;20028;-56
2021/12/14 05:59:23;;;;;;;18.70;11.02;;;10.00;75.40;;;;;;5100723;28;20024;-54
2021/12/14 06:01:50;;;;;;;20.05;11.38;;;10.00;75.50;;;;;;5100055;28;20028;-53
2021/12/14 06:04:16;;;;;;;18.38;10.43;;;10.00;75.50;;;;;;5100431;28;20020;-56
2021/12/14 06:06:47;;;;;;;17.63;10.82;;;10.00;75.50;;;;;;5100379;28;20023;-54
2021/12/14 06:09:27;;;;;;;16.80;10.30;;;10.00;75.50;;;;;;5100326;28;20110;-52
2021/12/14 06:11:59;;;;;;;19.63;11.93;;;10.00;75.50;;;;;;5100076;28;20036;-53
2021/12/14 06:14:29;;;;;;;18.00;10.70;;;10.00;75.50;;;;;;5100184;28;20023;-51
2021/12/14 06:17:03;;;;;;;18.77;10.25;;;10.00;75.50;;;;;;5100266;28;20047;-55
2021/12/14 06:19:41;;;;;;;18.20;10.27;;;10.00;75.50;;;;;;5099936;28;20036;-52
2021/12/14 06:22:13;;;;;;;18.48;10.30;;;10.00;75.50;;;;;;5100189;28;20028;-53
2021/12/14 06:24:49;;;;;;;21.73;11.10;;;10.00;75.60;;;;;;5100040;28;20020;-54
2021/12/14 06:27:17;;;;;;;20.08;11.55;;;10.00;75.40;;;;;;5099882;28;20024;-56
2021/12/14 06:29:47;;;;;;;21.15;11.43;;;10.00;75.40;;;;;;5100028;28;20024;-56
2021/12/14 06:32:18;;;;;;;22.40;11.75;;;10.00;75.40;;;;;;5100098;28;20035;-54
2021/12/14 06:34:52;;;;;;;20.88;12.23;;;10.00;75.40;;;;;;5100002;28;20024;-56
2021/12/14 06:40:10;;;;;;;20.55;11.77;;;9.90;75.30;;;;;;5099630;28;20020;-52
2021/12/14 06:42:52;;;;;;;22.08;11.85;;;9.90;75.30;;;;;;5100237;28;20040;-54
2021/12/14 06:45:27;;;;;;;20.60;11.45;;;9.90;75.30;;;;;;5099398;28;20024;-52
2021/12/14 06:47:58;;;;;;;19.08;11.07;;;9.90;75.30;;;;;;5099574;28;20023;-50
2021/12/14 06:50:34;;;;;;;19.55;11.38;;;9.90;75.30;;;;;;5099569;28;20035;-53
2021/12/14 06:53:04;;;;;;;18.45;10.70;;;9.90;75.40;;;;;;5099792;28;20028;-56
2021/12/14 06:55:32;;;;;;;23.13;11.30;;;9.90;75.50;;;;;;5099864;28;20084;-58
2021/12/14 06:58:14;;;;;;;20.02;10.70;;;9.80;75.40;;;;;;5099472;28;20609;-58
2021/12/14 07:00:45;;;;;;;20.88;11.63;;;9.90;75.90;;;;;;5099435;28;20386;-51
2021/12/14 07:03:11;;;;;;;20.98;12.10;;;9.90;75.50;;;;;;5099741;28;20028;-53
2021/12/14 07:05:39;;;;;;;19.90;11.75;;;9.90;75.30;;;;;;5098440;28;20024;-54
2021/12/14 07:08:11;;;;;;;20.70;12.30;;;9.90;75.40;;;;;;5098489;28;20024;-55
2021/12/14 07:10:40;;;;;;;26.27;14.52;;;9.80;75.30;;;;;;5098875;28;20107;-52
2021/12/14 07:13:14;;;;;;;24.00;14.35;;;9.90;75.50;;;;;;5098793;28;20077;-51
2021/12/14 07:15:41;;;;;;;23.08;13.02;;;9.90;75.30;;;;;;5099023;28;20027;-54
2021/12/14 07:18:08;;;;;;;24.98;13.40;;;9.80;75.20;;;;;;5098386;28;20517;-49
2021/12/14 07:20:41;;;;;;;19.13;11.85;;;9.80;75.80;;;;;;5097562;28;20471;-51
2021/12/14 07:23:28;;;;;;;21.43;11.97;;;9.80;75.40;;;;;;5098333;28;20066;-52
2021/12/14 07:26:03;;;;;;;22.08;13.38;;;9.90;75.50;;;;;;5091787;28;20270;-51
2021/12/14 07:28:36;;;;;;;;;;;9.80;75.30;;;;;;5098592;28;20032;-52
2021/12/14 07:31:30;;;;;;;19.75;12.48;;;9.90;75.30;;;;;;5098485;28;19904;-54
2021/12/14 07:33:58;;;;;;;22.25;12.48;;;9.80;75.30;;;;;;5096120;28;20032;-50
2021/12/14 07:36:27;;;;;;;23.83;12.70;;;9.80;75.80;;;;;;5098163;28;20024;-49
2021/12/14 07:38:59;;;;;;;22.15;12.25;;;9.80;75.30;;;;;;5097539;28;20028;-49
2021/12/14 07:41:42;;;;;;;22.05;12.43;;;9.80;75.30;;;;;;5097944;28;20020;-51
2021/12/14 07:44:37;;;;;;;21.77;11.55;;;9.80;75.30;;;;;;5098235;28;20020;-52
2021/12/14 07:47:09;;;;;;;20.85;12.25;;;9.80;75.50;;;;;;5094836;28;20036;-54
2021/12/14 07:49:35;;;;;;;21.17;12.77;;;9.80;75.40;;;;;;5097638;28;20030;-52
2021/12/14 07:52:16;;;;;;;22.83;14.65;;;9.90;75.50;;;;;;5097901;28;20024;-49
2021/12/14 07:54:49;;;;;;;21.58;12.88;;;9.90;75.50;;;;;;5098302;28;20111;-52
2021/12/14 07:57:20;;;;;;;21.65;14.25;;;9.80;75.30;;;;;;5097684;28;20027;-51
2021/12/14 07:59:52;;;;;;;23.30;13.57;;;9.90;75.40;;;;;;5097910;28;20043;-50
2021/12/14 08:02:19;;;;;;;26.55;17.10;;;9.90;75.50;;;;;;5097710;28;20020;-50
2021/12/14 08:04:51;;;;;;;24.58;13.73;;;9.90;75.50;;;;;;5097761;28;20116;-52
2021/12/14 08:07:46;;;;;;;23.48;12.63;;;9.90;75.40;;;;;;5098036;28;20574;-51
2021/12/14 08:10:29;;;;;;;21.63;12.80;;;9.90;75.40;;;;;;5096069;28;20112;-52
2021/12/14 08:13:05;;;;;;;21.92;12.32;;;9.90;75.40;;;;;;5097354;28;20103;-54
2021/12/14 08:15:37;;;;;;;20.10;10.73;;;9.90;75.40;;;;;;5097507;28;20442;-51
2021/12/14 08:18:05;;;;;;;20.23;10.80;;;9.90;75.40;;;;;;5097395;28;20093;-51
2021/12/14 08:20:33;;;;;;;18.38;10.23;;;10.00;75.40;;;;;;5097525;28;20431;-56
2021/12/14 08:23:14;;;;;;;19.83;10.98;;;10.00;75.40;;;;;;5097442;28;20020;-55
2021/12/14 08:25:41;;;;;;;20.30;11.07;;;10.00;75.40;;;;;;5097612;28;20027;-50
2021/12/14 08:28:08;;;;;;;21.77;10.60;;;10.00;75.90;;;;;;5097532;28;20043;-53
2021/12/14 08:30:37;;;;;;;21.42;10.73;;;10.00;75.50;;;;;;5097384;28;20048;-53
2021/12/14 08:33:04;;;;;;;20.75;11.50;;;10.00;75.50;;;;;;5097368;28;20483;-53
2021/12/14 08:35:30;;;;;;;22.80;13.45;;;10.00;75.50;;;;;;5097284;28;20028;-51
2021/12/14 08:37:59;;;;;;;24.88;12.68;;;10.10;75.50;;;;;;5097274;28;20040;-51
2021/12/14 08:40:37;;;;;;;21.80;12.35;;;10.10;75.50;;;;;;5097267;28;20093;-52
2021/12/14 08:43:12;;;;;;;19.33;11.15;;;10.10;75.40;;;;;;5097354;28;20028;-53
2021/12/14 08:45:54;;;;;;;20.10;11.32;;;10.10;75.90;;;;;;5097609;28;20032;-50
2021/12/14 08:48:26;;;;;;;21.33;11.45;;;10.10;75.40;;;;;;5097323;28;20471;-56
2021/12/14 08:51:01;;;;;;;21.30;10.85;;;10.10;75.40;;;;;;5098568;28;20028;-54
2021/12/14 08:53:33;;;;;;;18.73;10.63;;;10.20;75.40;;;;;;5101489;28;20051;-51
2021/12/14 08:56:03;;;;;;;21.10;10.77;;;10.10;75.40;;;;;;5101587;28;20030;-49
2021/12/14 08:58:29;;;;;;;18.70;9.88;;;10.20;75.40;;;;;;5101001;28;20028;-51
2021/12/14 09:01:12;;;;;;;20.38;9.95;;;10.20;75.50;;;;;;5100943;28;20103;-52
2021/12/14 09:03:44;;;;;;;18.60;9.30;;;10.20;75.60;;;;;;5101520;28;20024;-50
2021/12/14 09:06:15;;;;;;;16.83;9.65;;;10.20;75.60;;;;;;5101029;28;20084;-53
2021/12/14 09:08:43;;;;;;;18.73;10.50;;;10.20;75.50;;;;;;5101394;28;20020;-52
2021/12/14 09:11:11;;;;;;;18.25;9.63;;;10.20;75.50;;;;;;5100902;28;20026;-54
2021/12/14 09:13:37;;;;;;;18.42;10.35;;;10.20;75.50;;;;;;5101349;28;20081;-52
2021/12/14 09:16:09;;;;;;;19.70;12.05;;;10.20;75.50;;;;;;5100925;28;20077;-52
2021/12/14 09:18:40;;;;;;;19.10;11.43;;;10.20;75.50;;;;;;5100840;28;20487;-49
2021/12/14 09:21:11;;;;;;;15.85;8.82;;;10.30;75.60;;;;;;5100745;28;20035;-53
2021/12/14 09:23:42;;;;;;;16.98;8.63;;;10.30;75.50;;;;;;5100831;28;20158;-51
2021/12/14 09:26:12;;;;;;;16.88;9.43;;;10.30;75.50;;;;;;5100792;28;20021;-50
2021/12/14 09:28:38;;;;;;;22.42;11.57;;;10.30;75.40;;;;;;5100776;28;20442;-53
2021/12/14 09:31:09;;;;;;;19.10;11.18;;;10.30;75.50;;;;;;5100875;28;20552;-53
2021/12/14 09:33:38;;;;;;;17.40;9.40;;;10.30;75.50;;;;;;5101034;28;20448;-56
2021/12/14 09:36:11;;;;;;;16.63;9.73;;;10.30;75.20;;;;;;5100415;28;20048;-53
2021/12/14 09:38:40;;;;;;;20.00;11.10;;;10.30;75.20;;;;;;5100379;28;20028;-53
2021/12/14 09:41:09;;;;;;;21.27;11.80;;;10.30;75.30;;;;;;5100214;28;20114;-51
2021/12/14 09:43:36;;;;;;;21.85;12.02;;;10.30;75.50;;;;;;5100681;28;20038;-52
2021/12/14 09:46:04;;;;;;;24.52;13.45;;;10.30;75.40;;;;;;5100417;28;20021;-54
2021/12/14 09:48:43;;;;;;;19.88;11.55;;;10.30;75.30;;;;;;5099746;28;20028;-51
2021/12/14 09:51:14;;;;;;;19.95;11.15;;;10.30;75.50;;;;;;5100495;28;20035;-51
2021/12/14 09:53:45;;;;;;;19.98;10.80;;;10.30;75.50;;;;;;5100215;28;20475;-55
2021/12/14 09:56:13;;;;;;;20.23;11.75;;;10.30;75.50;;;;;;5100277;28;20039;-55
2021/12/14 09:58:44;;;;;;;19.08;10.57;;;10.30;75.50;;;;;;5100202;28;20030;-49
2021/12/14 10:01:18;;;;;;;24.83;19.05;;;10.30;75.50;;;;;;5100202;28;20429;-55
2021/12/14 10:03:47;;;;;;;37.60;31.10;;;10.30;75.50;;;;;;5099452;28;20024;-52
2021/12/14 10:06:17;;;;;;;21.15;12.68;;;10.30;75.50;;;;;;5100124;28;20372;-53
2021/12/14 10:08:51;;;;;;;25.48;16.55;;;10.40;75.70;;;;;;5099886;28;20024;-50
2021/12/14 10:11:26;;;;;;;;;;;10.40;75.50;;;;;;5100315;28;20079;-51
2021/12/14 10:13:55;;;;;;;23.02;11.40;;;10.50;75.50;;;;;;5099843;28;19911;-49
2021/12/14 10:16:22;;;;;;;18.85;10.75;;;10.50;75.40;;;;;;5099750;28;20027;-53
2021/12/14 10:18:55;;;;;;;24.15;13.13;;;10.50;75.50;;;;;;5099242;28;20048;-49
2021/12/14 10:21:35;;;;;;;26.63;17.27;;;10.40;75.70;;;;;;5099948;28;20513;-49
2021/12/14 10:24:04;;;;;;;22.20;13.00;;;10.40;75.50;;;;;;5099995;28;20020;-50
2021/12/14 10:26:33;;;;;;;22.25;11.02;;;10.50;75.60;;;;;;5099453;28;20390;-56
2021/12/14 10:29:00;;;;;;;21.10;11.73;;;10.50;75.50;;;;;;5099412;28;20036;-49
2021/12/14 10:31:51;;;;;;;17.33;10.43;;;10.50;75.50;;;;;;5099538;28;20050;-51
2021/12/14 10:34:22;;;;;;;21.45;14.27;;;10.50;75.30;;;;;;5094663;28;20544;-50
2021/12/14 10:36:53;;;;;;;25.27;17.77;;;10.50;75.40;;;;;;5099102;28;20035;-52
2021/12/14 10:42:41;;;;;;;15.55;9.98;;;10.50;75.50;;;;;;5099428;28;20028;-52
2021/12/14 10:44:59;;;;;;;15.98;10.50;;;10.50;75.50;;;;;;5099297;28;20107;-53
2021/12/14 10:47:28;;;;;;;14.15;7.65;;;10.60;75.50;;;;;;5098894;28;20471;-49
2021/12/14 10:49:56;;;;;;;25.80;18.52;;;10.60;75.40;;;;;;5099457;28;20114;-52
2021/12/14 10:52:27;;;;;;;18.80;13.95;;;10.60;75.40;;;;;;5098936;28;20521;-50
2021/12/14 10:55:05;;;;;;;21.02;15.00;;;10.60;75.40;;;;;;5099012;28;20028;-50
2021/12/14 10:57:33;;;;;;;16.08;9.80;;;10.70;75.50;;;;;;5098627;28;20094;-50
2021/12/14 11:00:00;;;;;;;14.63;8.15;;;10.70;75.50;;;;;;5098881;28;20035;-52
2021/12/14 11:02:27;;;;;;;16.63;11.38;;;10.80;75.50;;;;;;5099035;28;20012;-53
2021/12/14 11:04:58;;;;;;;15.43;7.55;;;10.70;75.50;;;;;;5099152;28;20024;-53
2021/12/14 11:07:40;;;;;;;14.05;7.88;;;10.80;75.50;;;;;;5098697;28;20051;-51
2021/12/14 11:10:23;;;;;;;15.23;8.00;;;10.80;75.50;;;;;;5099372;28;20512;-55
2021/12/14 11:12:55;;;;;;;15.07;7.73;;;10.90;75.30;;;;;;5098115;28;20027;-49
2021/12/14 11:15:30;;;;;;;14.68;7.60;;;10.80;75.40;;;;;;5098572;28;20020;-50
2021/12/14 11:18:08;;;;;;;15.23;7.47;;;10.80;75.50;;;;;;5098369;28;20052;-49
2021/12/14 11:21:07;;;;;;;13.98;8.43;;;10.90;75.60;;;;;;5098588;28;20024;-52
2021/12/14 11:23:37;;;;;;;15.38;7.60;;;10.90;75.20;;;;;;5098259;28;20047;-50
2021/12/14 11:26:18;;;;;;;15.65;7.35;;;10.90;75.30;;;;;;5098634;28;20464;-51
2021/12/14 11:28:50;;;;;;;12.52;7.05;;;10.90;75.40;;;;;;5098483;28;20120;-51
2021/12/14 11:31:24;;;;;;;13.70;7.38;;;10.90;75.60;;;;;;5098065;28;20028;-52
2021/12/14 11:33:55;;;;;;;;;;;10.90;75.60;;;;;;5098683;28;20090;-50
2021/12/14 11:36:33;;;;;;;12.25;6.78;;;11.00;75.60;;;;;;5098340;28;20066;-51
2021/12/14 11:39:11;;;;;;;11.85;6.15;;;11.00;75.50;;;;;;5097924;28;20020;-51
2021/12/14 11:41:42;;;;;;;11.60;6.38;;;11.00;76.00;;;;;;5098189;28;20439;-52
2021/12/14 11:44:14;;;;;;;12.55;6.72;;;11.00;75.50;;;;;;5098417;28;20099;-52
2021/12/14 11:46:55;;;;;;;13.18;6.28;;;11.10;75.50;;;;;;5098048;28;20112;-54
2021/12/14 11:49:25;;;;;;;11.05;5.95;;;11.10;75.40;;;;;;5098348;28;20052;-50
2021/12/14 11:51:52;;;;;;;21.55;11.25;;;11.10;75.30;;;;;;5097535;28;20028;-49
2021/12/14 11:54:20;;;;;;;37.67;21.02;;;11.10;75.20;;;;;;5097811;28;20043;-49
2021/12/14 11:56:49;;;;;;;20.10;10.32;;;11.10;75.30;;;;;;5097579;28;20036;-50
2021/12/14 11:59:17;;;;;;;14.70;7.97;;;11.10;75.20;;;;;;5097941;28;20028;-50
2021/12/14 12:01:49;;;;;;;13.13;6.82;;;11.10;75.30;;;;;;5097698;28;20024;-49
2021/12/14 12:04:33;;;;;;;12.60;6.82;;;11.20;75.40;;;;;;5097754;28;20471;-50
2021/12/14 12:09:48;;;;;;;18.60;10.07;;;11.20;75.30;;;;;;5097642;28;20034;-50
2021/12/14 12:12:32;;;;;;;15.73;7.85;;;11.30;75.40;;;;;;5097630;28;20034;-50
2021/12/14 12:15:12;;;;;;;12.30;6.87;;;11.30;75.30;;;;;;5097508;28;20479;-50
2021/12/14 12:17:46;;;;;;;10.98;6.22;;;11.20;75.20;;;;;;5095713;28;20365;-53
2021/12/14 12:20:29;;;;;;;11.80;6.70;;;11.30;75.20;;;;;;5097402;28;20079;-52
2021/12/14 12:23:06;;;;;;;11.40;6.22;;;11.30;75.20;;;;;;5097494;28;20035;-49
2021/12/14 12:25:34;;;;;;;11.60;6.53;;;11.30;75.40;;;;;;5096977;28;20075;-51
2021/12/14 12:28:09;;;;;;;12.20;6.35;;;11.30;75.30;;;;;;5097581;28;20016;-54
2021/12/14 12:30:40;;;;;;;14.25;8.60;;;11.30;75.30;;;;;;5097389;28;20026;-52
2021/12/14 12:33:18;;;;;;;12.40;6.43;;;11.40;75.40;;;;;;5097512;28;20367;-49
2021/12/14 12:36:08;;;;;;;11.43;6.05;;;11.40;75.20;;;;;;5097752;28;20035;-51
2021/12/14 12:38:46;;;;;;;11.82;7.20;;;11.40;75.20;;;;;;5097185;28;20039;-55
2021/12/14 12:41:45;;;;;;;23.48;18.13;;;11.40;75.20;;;;;;5097307;28;20024;-49
2021/12/14 12:44:15;;;;;;;11.75;7.78;;;11.50;75.10;;;;;;5097257;28;20028;-50
2021/12/14 12:47:04;;;;;;;15.18;11.30;;;11.50;75.00;;;;;;5097022;28;20031;-50
2021/12/14 12:49:39;;;;;;;12.02;7.88;;;11.50;75.00;;;;;;5097315;28;20055;-52
2021/12/14 12:52:20;;;;;;;15.57;10.00;;;11.50;74.90;;;;;;5097562;28;20099;-49
2021/12/14 12:54:46;;;;;;;12.25;7.82;;;11.50;75.00;;;;;;5097371;28;20459;-49
2021/12/14 12:57:36;;;;;;;12.57;7.90;;;11.50;75.10;;;;;;5097285;28;20035;-49
2021/12/14 13:00:16;;;;;;;13.38;8.23;;;11.50;75.10;;;;;;5097153;28;20037;-49
2021/12/14 13:02:53;;;;;;;14.80;9.60;;;11.50;74.90;;;;;;5096897;28;20031;-51
2021/12/14 13:05:33;;;;;;;14.10;11.05;;;11.50;74.70;;;;;;5097182;28;20451;-54
2021/12/14 13:08:02;;;;;;;17.42;12.55;;;11.50;74.90;;;;;;5097396;28;20016;-49
2021/12/14 13:10:39;;;;;;;23.63;21.23;;;11.50;74.90;;;;;;5097054;28;20020;-49
2021/12/14 13:13:14;;;;;;;15.57;12.27;;;11.50;74.70;;;;;;5097304;28;20095;-49
2021/12/14 13:15:46;;;;;;;31.30;28.27;;;11.50;75.00;;;;;;5096935;28;20043;-51
2021/12/14 13:18:21;;;;;;;15.93;10.90;;;11.60;74.90;;;;;;5096747;28;20040;-49
2021/12/14 13:20:50;;;;;;;39.45;35.45;;;11.70;74.90;;;;;;5097057;28;20024;-49
2021/12/14 13:23:18;;;;;;;23.17;20.80;;;11.70;75.00;;;;;;5097081;28;20012;-51
2021/12/14 13:25:44;;;;;;;28.13;25.42;;;11.70;75.00;;;;;;5097106;28;20459;-55
2021/12/14 13:28:13;;;;;;;27.45;24.70;;;11.70;75.00;;;;;;5095691;28;20028;-51
2021/12/14 13:30:39;;;;;;;33.05;30.13;;;11.70;74.90;;;;;;5096704;28;20020;-51
2021/12/14 13:33:23;;;;;;;21.92;19.35;;;11.70;74.70;;;;;;5095266;28;20024;-49
2021/12/14 13:35:49;;;;;;;14.98;9.07;;;11.70;74.80;;;;;;5096094;28;20078;-53